Flight Track Log - Related Links

Times and Time Zones

All times are in EDT time to prevent confusion due to time zone crossing. See the ASQ4577 flight status page for this flight to view local times or setup timezone preferences in your user account.

Time Position Orientation Groundspeed Altitude Reporting Facility
EDT Latitude Longitude Course Direction KTS MPH feet Rate Location/Type
Wed 04:12:58 PM 32.8333 -97.0167 164° South 204 235 3,200  Level Dallas / Fort Worth TRACON
Wed 04:13:59 PM 32.8000 -96.9667 128° Southeast 271 312 4,900 1,774 Climbing Dallas / Fort Worth TRACON
Wed 04:14:53 PM 32.8000 -96.8833 90° East 279 321 6,600 2,018 Climbing Dallas / Fort Worth TRACON
Wed 04:15:52 PM 32.8000 -96.7833 90° East 290 334 8,700 1,457 Climbing Dallas / Fort Worth TRACON
Wed 04:17:46 PM 32.7931 -96.5881 92° East 331 381 10,800 1,241 Climbing Fort Worth Center
Wed 04:18:46 PM 32.7922 -96.4669 90° East 353 406 12,300 1,800 Climbing Fort Worth Center
Wed 04:19:46 PM 32.8081 -96.3506 81° East 365 420 14,400 2,000 Climbing Fort Worth Center
Wed 04:20:46 PM 32.8636 -96.2486 57° Northeast 351 404 16,300 1,800 Climbing Fort Worth Center
Wed 04:21:46 PM 32.9147 -96.1464 59° Northeast 356 410 18,000 1,550 Climbing Fort Worth Center
Wed 04:22:46 PM 32.9636 -96.0367 62° Northeast 356 410 19,400 1,400 Climbing Fort Worth Center
Wed 04:23:46 PM 33.0147 -95.9319 60° Northeast 356 410 20,800 1,250 Climbing Fort Worth Center
Wed 04:24:46 PM 33.0656 -95.8194 62° Northeast 366 421 21,900 1,300 Climbing Fort Worth Center
Wed 04:25:46 PM 33.1203 -95.7069 60° Northeast 379 436 23,400 1,400 Climbing Fort Worth Center
Wed 04:26:46 PM 33.1708 -95.5894 63° Northeast 385 443 24,700 950 Climbing Fort Worth Center
Wed 04:27:46 PM 33.2233 -95.4739 61° Northeast 390 449 25,300 900 Climbing Fort Worth Center
Wed 04:28:46 PM 33.2800 -95.3511 61° Northeast 396 456 26,500 1,100 Climbing Fort Worth Center
Wed 04:29:46 PM 33.3342 -95.2331 61° Northeast 402 463 27,500 950 Climbing Fort Worth Center
Wed 04:30:46 PM 33.3906 -95.1122 61° Northeast 402 463 28,400 950 Climbing Fort Worth Center
Wed 04:31:46 PM 33.4486 -94.9861 61° Northeast 407 468 29,400 1,000 Climbing Fort Worth Center
Wed 04:32:46 PM 33.5067 -94.8600 61° Northeast 421 484 30,400 1,000 Climbing Fort Worth Center
Wed 04:33:46 PM 33.5625 -94.7361 62° Northeast 421 484 31,400 1,000 Climbing Fort Worth Center
Wed 04:34:46 PM 33.6244 -94.6072 60° Northeast 427 491 32,400 950 Climbing Fort Worth Center
Wed 04:35:46 PM 33.6819 -94.4781 62° Northeast 427 491 33,300 950 Climbing Fort Worth Center
Wed 04:36:46 PM 33.7394 -94.3486 62° Northeast 427 491 34,300 850 Climbing Fort Worth Center
Wed 04:37:46 PM 33.7931 -94.2344 61° Northeast 433 498 35,000 750 Climbing Fort Worth Center
Wed 04:38:46 PM 33.8500 -94.1022 63° Northeast 433 498 35,800 670 Climbing Fort Worth Center
Wed 04:40:45 PM 33.9633 -93.8508 61° Northeast 449 517 37,000 402 Climbing Memphis Center
Wed 04:41:45 PM 34.0211 -93.7178 62° Northeast 449 517 37,000  Level Memphis Center
Wed 04:42:45 PM 34.0792 -93.5797 63° Northeast 449 517 37,000  Level Memphis Center
Wed 04:43:45 PM 34.1411 -93.4339 63° Northeast 457 526 37,000  Level Memphis Center
Wed 04:44:45 PM 34.2072 -93.2881 61° Northeast 474 545 37,000  Level Memphis Center
Wed 04:45:45 PM 34.2733 -93.1369 62° Northeast 488 562 37,000  Level Memphis Center
Wed 04:46:45 PM 34.3419 -92.9606 65° Northeast 512 589 37,000  Level Memphis Center
Wed 04:47:45 PM 34.4094 -92.8117 61° Northeast 512 589 37,000  Level Memphis Center
Wed 04:48:45 PM 34.4772 -92.6525 63° Northeast 512 589 37,000  Level Memphis Center
Wed 04:49:45 PM 34.5425 -92.4953 63° Northeast 518 596 37,000  Level Memphis Center
Wed 04:50:45 PM 34.6078 -92.3381 63° Northeast 513 590 37,000  Level Memphis Center
Wed 04:51:45 PM 34.6747 -92.1906 61° Northeast 506 582 37,000  Level Memphis Center
Wed 04:52:45 PM 34.7683 -92.0636 48° Northeast 496 571 37,000  Level Memphis Center
Wed 04:53:45 PM 34.8639 -91.9389 47° Northeast 496 571 37,000  Level Memphis Center
Wed 04:54:45 PM 34.9592 -91.8167 46° Northeast 496 571 37,000  Level Memphis Center
Wed 04:55:45 PM 35.0544 -91.6939 47° Northeast 496 571 37,000  Level Memphis Center
Wed 04:56:45 PM 35.1517 -91.5711 46° Northeast 491 565 37,000  Level Memphis Center
Wed 04:57:45 PM 35.2467 -91.4478 47° Northeast 491 565 37,000  Level Memphis Center
Wed 04:58:45 PM 35.3394 -91.3269 47° Northeast 491 565 37,000  Level Memphis Center
Wed 04:59:45 PM 35.4322 -91.2081 46° Northeast 491 565 37,000  Level Memphis Center
Wed 05:00:45 PM 35.5225 -91.0814 49° Northeast 485 558 37,000  Level Memphis Center
Wed 05:01:45 PM 35.6025 -90.9494 53° Northeast 485 558 37,000  Level Memphis Center
Wed 05:02:45 PM 35.6844 -90.8119 54° Northeast 490 564 37,000  Level Memphis Center
Wed 05:03:45 PM 35.7517 -90.6922 55° Northeast 484 557 37,000  Level Memphis Center
Wed 05:04:45 PM 35.8269 -90.5592 55° Northeast 479 551 37,000 -200 Level Memphis Center
Wed 05:05:45 PM 35.9083 -90.4236 53° Northeast 479 551 36,600 -650 Descending Memphis Center
Wed 05:06:45 PM 35.9897 -90.2853 54° Northeast 484 557 35,700 -800 Descending Memphis Center
Wed 05:07:45 PM 36.0708 -90.1517 53° Northeast 489 563 35,000 -350 Descending Memphis Center
Wed 05:08:45 PM 36.1478 -90.0178 55° Northeast 489 563 35,000  Level Memphis Center
Wed 05:09:45 PM 36.2264 -89.8836 54° Northeast 484 557 35,000  Level Memphis Center
Wed 05:10:45 PM 36.3072 -89.7492 53° Northeast 484 557 35,000  Level Memphis Center
Wed 05:11:45 PM 36.3878 -89.6119 54° Northeast 484 557 35,000  Level Memphis Center
Wed 05:12:45 PM 36.4786 -89.4667 52° Northeast 484 557 35,000  Level Memphis Center
Wed 05:13:45 PM 36.5608 -89.3211 55° Northeast 495 570 35,000 300 Level Memphis Center
Wed 05:14:45 PM 36.6367 -89.1803 56° Northeast 495 570 35,600 800 Climbing Memphis Center
Wed 05:15:45 PM 36.7103 -89.0472 55° Northeast 483 556 36,600 700 Climbing Memphis Center
Wed 05:16:45 PM 36.7839 -88.9167 55° Northeast 470 541 37,000 200 Climbing Memphis Center
Wed 05:17:45 PM 36.8614 -88.7803 55° Northeast 470 541 37,000  Level Memphis Center
Wed 05:18:45 PM 36.9367 -88.6517 54° Northeast 470 541 37,000  Level Memphis Center
Wed 05:19:45 PM 37.0139 -88.5097 56° Northeast 475 547 37,000  Level Memphis Center
Wed 05:21:27 PM 37.1464 -88.2631 56° Northeast 499 574 37,000  Level Indianapolis Center
Wed 05:22:29 PM 37.2267 -88.1172 55° Northeast 502 578 37,000  Level Indianapolis Center
Wed 05:23:31 PM 37.3025 -87.9808 55° Northeast 479 551 37,000  Level Indianapolis Center
Wed 05:24:33 PM 37.3750 -87.8486 55° Northeast 458 527 37,000  Level Indianapolis Center
Wed 05:25:35 PM 37.4475 -87.7147 56° Northeast 458 527 37,000  Level Indianapolis Center
Wed 05:26:37 PM 37.5239 -87.5847 53° Northeast 458 527 37,000  Level Indianapolis Center
Wed 05:27:40 PM 37.6028 -87.4597 51° Northeast 453 521 37,000  Level Indianapolis Center
Wed 05:28:42 PM 37.6950 -87.3144 51° Northeast 450 518 37,000  Level Indianapolis Center
Wed 05:29:44 PM 37.7694 -87.1972 51° Northeast 454 522 37,000  Level Indianapolis Center
Wed 05:30:46 PM 37.8475 -87.0731 51° Northeast 453 521 37,000  Level Indianapolis Center
Wed 05:31:48 PM 37.9250 -86.9492 52° Northeast 451 519 37,000  Level Indianapolis Center
Wed 05:32:50 PM 38.0178 -86.7994 52° Northeast 453 521 37,000  Level Indianapolis Center
Wed 05:33:52 PM 38.0953 -86.6756 51° Northeast 452 520 37,000  Level Indianapolis Center
Wed 05:34:54 PM 38.1717 -86.5500 52° Northeast 452 520 37,000  Level Indianapolis Center
Wed 05:35:56 PM 38.2492 -86.4247 52° Northeast 453 521 37,000  Level Indianapolis Center
Wed 05:36:58 PM 38.3264 -86.3008 52° Northeast 450 518 37,000  Level Indianapolis Center
Wed 05:38:00 PM 38.4031 -86.1736 52° Northeast 451 519 37,000  Level Indianapolis Center
Wed 05:39:02 PM 38.4953 -86.0239 52° Northeast 446 513 37,000  Level Indianapolis Center
Wed 05:40:04 PM 38.5728 -85.8983 52° Northeast 449 517 37,000  Level Indianapolis Center
Wed 05:41:06 PM 38.6522 -85.7650 53° Northeast 444 511 37,000  Level Indianapolis Center
Wed 05:42:08 PM 38.7261 -85.6414 53° Northeast 442 509 37,000  Level Indianapolis Center
Wed 05:43:10 PM 38.8003 -85.5178 52° Northeast 439 505 37,000  Level Indianapolis Center
Wed 05:44:12 PM 38.8733 -85.3944 53° Northeast 437 503 37,000  Level Indianapolis Center
Wed 05:45:14 PM 38.9444 -85.2683 54° Northeast 438 504 37,000  Level Indianapolis Center
Wed 05:46:16 PM 39.0003 -85.0947 67° East 442 509 37,000  Level Indianapolis Center
Wed 05:47:18 PM 39.0492 -84.9511 66° East 440 506 37,000  Level Indianapolis Center
Wed 05:48:21 PM 39.0947 -84.8103 67° East 439 505 37,000 -144 Level Indianapolis Center
Wed 05:49:23 PM 39.1489 -84.6697 64° Northeast 435 501 36,700 -629 Descending Indianapolis Center
Wed 05:50:25 PM 39.2158 -84.5411 56° Northeast 430 495 35,700 -1,306 Descending Indianapolis Center
Wed 05:51:27 PM 39.3156 -84.4131 45° Northeast 431 496 34,000 -1,548 Descending Indianapolis Center
Wed 05:52:29 PM 39.4081 -84.3103 41° Northeast 434 499 32,500 -1,452 Descending Indianapolis Center
Wed 05:53:31 PM 39.5017 -84.2058 41° Northeast 439 505 31,000 -1,500 Descending Indianapolis Center
Wed 05:54:33 PM 39.5956 -84.1008 41° Northeast 441 507 29,400 -1,113 Descending Indianapolis Center
Wed 05:55:35 PM 39.6897 -83.9947 41° Northeast 442 509 28,700 -1,016 Descending Indianapolis Center
Wed 05:56:37 PM 39.7864 -83.8908 40° Northeast 442 509 27,300 -1,355 Descending Indianapolis Center
Wed 05:57:39 PM 39.8842 -83.7869 39° Northeast 446 513 25,900 -1,355 Descending Indianapolis Center
Wed 05:58:41 PM 39.9822 -83.6822 39° Northeast 446 513 24,500 -968 Descending Indianapolis Center
Wed 05:59:43 PM 40.0789 -83.5761 40° Northeast 445 512 23,900 -774 Descending Indianapolis Center
Wed 06:00:45 PM 40.1756 -83.4717 40° Northeast 443 510 22,900 -1,016 Descending Indianapolis Center
Wed 06:01:47 PM 40.2872 -83.3394 42° Northeast 457 526 21,800 -1,016 Descending Indianapolis Center
Wed 06:02:49 PM 40.3764 -83.2244 44° Northeast 451 519 20,800 -968 Descending Indianapolis Center
Wed 06:03:51 PM 40.4631 -83.1142 44° Northeast 437 503 19,800 -1,403 Descending Indianapolis Center
Wed 06:04:53 PM 40.5469 -83.0056 45° Northeast 423 487 17,900 -2,112 Descending Indianapolis Center
Wed 06:05:56 PM 40.6331 -82.8967 44° Northeast 425 489 15,400 -2,591 Descending Indianapolis Center
Wed 06:06:21 PM 40.6742 -82.8417 45° Northeast 420 483 14,100 -2,682 Descending Cleveland Center
Wed 06:07:21 PM 40.7492 -82.7456 44° Northeast 394 453 11,600 -1,550 Descending Cleveland Center
Wed 06:08:21 PM 40.8217 -82.6492 45° Northeast 368 423 11,000 -300 Descending Cleveland Center
Wed 06:09:21 PM 40.9028 -82.5500 43° Northeast 380 437 11,000 -132 Level Cleveland Center
Wed 06:09:52 PM 40.9392 -82.4961 48° Northeast 405 466 10,800 -500 Descending Cleveland Center
Wed 06:10:21 PM 40.9669 -82.4586 46° Northeast 380 437 10,500 -689 Descending Cleveland Center
Wed 06:10:53 PM 41.0117 -82.4019 44° Northeast 363 418 10,100 -500 Descending Cleveland Center
Wed 06:11:21 PM 41.0392 -82.3669 44° Northeast 366 421 10,000  Descending Cleveland Center
Wed 06:11:54 PM 41.0817 -82.3103 45° Northeast 359 413 10,100  Climbing Cleveland Center
Wed 06:12:21 PM 41.1075 -82.2669 52° Northeast 359 413 10,000  Descending Cleveland Center
Wed 06:12:54 PM 41.1542 -82.2128 41° Northeast 366 421 10,100 100 Climbing Cleveland Center
Wed 06:13:21 PM 41.1881 -82.1669 45° Northeast 354 407 10,100 -295 Level Cleveland Center
Wed 06:13:55 PM 41.2264 -82.1181 44° Northeast 335 386 9,800 -600 Descending Cleveland Center
Wed 06:14:21 PM 41.2456 -82.0881 50° Northeast 342 394 9,500 -1,279 Descending Cleveland Center
Wed 06:14:56 PM 41.2836 -82.0367 45° Northeast 282 325 8,500 -1,300 Descending Cleveland Center
Wed 06:15:21 PM 41.3028 -82.0122 44° Northeast 312 359 8,200 -1,082 Descending Cleveland Center
Wed 06:15:57 PM 41.3181 -81.9489 72° East 284 327 7,400 -1,100 Descending Cleveland Center
Wed 06:16:21 PM 41.3269 -81.9131 72° East 274 315 7,100 -436 Descending Cleveland Center
Wed 06:16:52 PM 41.3378 -81.8636 74° East 262 302 7,000  Descending Cleveland Center
Wed 06:17:21 PM 41.3444 -81.8250 77° East 262 302 7,100 100 Climbing Cleveland Center
Wed 06:17:52 PM 41.3594 -81.7839 64° Northeast 236 272 7,100 -100 Level Cleveland Center
Wed 06:18:21 PM 41.3786 -81.7536 50° Northeast 239 275 7,000  Descending Cleveland Center
Wed 06:18:53 PM 41.4061 -81.7208 42° Northeast 236 272 7,100 -61 Climbing Cleveland Center
Wed 06:20:00 PM 41.4567 -81.6469 48° Northeast 245 282 6,900 -639 Descending Cleveland Center
Wed 06:20:55 PM 41.4992 -81.5867 47° Northeast 237 273 5,800 -983 Descending Cleveland Center
Wed 06:21:56 PM 41.5431 -81.5542 29° Northeast 201 231 5,000 -744 Descending Cleveland Center
Wed 06:22:56 PM 41.5425 -81.6122 269° West 164 189 4,300 -496 Descending Cleveland Center
Wed 06:23:57 PM 41.5294 -81.6706 253° West 168 193 4,000 -517 Descending Cleveland Center
Wed 06:24:52 PM 41.5000 -81.7169 230° Southwest 186 214 3,300 -764 Descending Cleveland Center

Login

Don't have an account? Register now (free) for customized features, flight alerts, and more!